ENBL/FDE METAR and TAF weather

Enter ICAO airport designator
Station Type Date Time Source
ENBL METAR 2019/04/18 14:20 UTC NOAA

ENBL 181420Z 17010KT CAVOK 14/M06 Q1036


Station Type Date Time Source
ENBL Decoded METAR 2019/04/18 14:20 UTC NOAA

Forde / Bringeland, Norway (ENBL) 61-27N 005-52E
Apr 18, 2019 - 10:20 AM EDT / 2019.04.18 1420 UTC
Wind: from the S (170 degrees) at 12 MPH (10 KT):0
Visibility: greater than 7 mile(s):0
Temperature: 57 F (14 C)
Dew Point: 21 F (-6 C)
Relative Humidity: 24%
Pressure (altimeter): 30.59 in. Hg (1036 hPa)
ob: ENBL 181420Z 17010KT CAVOK 14/M06 Q1036
cycle: 14

Station Type Date Time Source
ENBL TAF UTC NOAA

Error!

Example: see airport list